Time;durP1;ratioP1;P1;durP2;ratioP2;P2;SDS_P1;SDS_P2;PMS_P1;PMS_P2;Temp;Humidity;BMP_temperature;BMP_pressure;BME280_temperature;BME280_humidity;BME280_pressure;Samples;Min_cycle;Max_cycle;Signal;HPM_P1;HPM_P2
2021/01/06 00:01:38;;;;;;;11.98;6.93;;;;;;;3.52;100.00;100703.47;5243883;28;20032;-79
2021/01/06 00:04:08;;;;;;;10.88;6.75;;;;;;;3.39;100.00;100704.38;5243752;28;20051;-79
2021/01/06 00:06:39;;;;;;;11.43;6.85;;;;;;;3.41;100.00;100705.22;5244220;28;20423;-78
2021/01/06 00:09:09;;;;;;;12.60;6.68;;;;;;;3.50;100.00;100707.78;5247607;28;20024;-79
2021/01/06 00:11:40;;;;;;;12.63;6.03;;;;;;;3.41;100.00;100702.63;5247212;28;20028;-79
2021/01/06 00:14:14;;;;;;;10.73;6.53;;;;;;;3.36;100.00;100707.81;5243623;28;20036;-79
2021/01/06 00:16:50;;;;;;;11.82;6.75;;;;;;;3.41;100.00;100697.47;5244035;28;20017;-80
2021/01/06 00:19:21;;;;;;;12.43;6.93;;;;;;;3.45;100.00;100697.47;5242230;28;20025;-79
2021/01/06 00:21:51;;;;;;;8.63;5.75;;;;;;;3.40;100.00;100700.94;5243405;28;20028;-79
2021/01/06 00:24:22;;;;;;;10.00;5.93;;;;;;;3.44;100.00;100695.75;5243016;28;20123;-79
2021/01/06 00:26:52;;;;;;;9.70;5.57;;;;;;;3.41;100.00;100697.47;5243766;28;20032;-79
2021/01/06 00:29:22;;;;;;;9.43;5.47;;;;;;;3.36;100.00;100699.22;5243336;28;20379;-78
2021/01/06 00:31:53;;;;;;;9.73;5.60;;;;;;;3.30;100.00;100699.22;5243957;28;20081;-79
2021/01/06 00:34:23;;;;;;;10.23;5.97;;;;;;;3.26;100.00;100702.69;5243634;28;20028;-79
2021/01/06 00:36:54;;;;;;;9.48;5.40;;;;;;;3.35;100.00;100692.34;5243763;28;20026;-79
2021/01/06 00:39:24;;;;;;;8.38;4.82;;;;;;;3.33;100.00;100694.94;5248914;28;20028;-79
2021/01/06 00:41:54;;;;;;;10.02;5.50;;;;;;;3.17;100.00;100702.75;5243995;28;20745;-79
2021/01/06 00:44:24;;;;;;;10.23;4.70;;;;;;;3.32;100.00;100692.34;5242941;28;20548;-79
2021/01/06 00:46:55;;;;;;;9.07;4.78;;;;;;;3.28;100.00;100695.81;5243487;28;20700;-79
2021/01/06 00:49:25;;;;;;;7.90;5.03;;;;;;;3.31;100.00;100688.03;5242880;28;20063;-79
2021/01/06 00:51:55;;;;;;;9.88;5.22;;;;;;;3.35;100.00;100687.19;5243794;28;20028;-79
2021/01/06 00:54:25;;;;;;;10.25;5.13;;;;;;;3.39;100.00;100689.72;5242996;28;20112;-79
2021/01/06 00:56:56;;;;;;;8.98;5.28;;;;;;;3.23;100.00;100692.41;5243486;28;20021;-79
2021/01/06 00:59:26;;;;;;;9.90;5.40;;;;;;;3.27;100.00;100676.00;5242900;28;20028;-79
2021/01/06 01:01:56;;;;;;;10.25;5.13;;;;;;;3.40;100.00;100680.25;5243529;28;20020;-79
2021/01/06 01:04:26;;;;;;;9.48;5.40;;;;;;;3.33;100.00;100679.44;5242588;28;20071;-79
2021/01/06 01:06:57;;;;;;;8.85;5.05;;;;;;;3.34;100.00;100675.97;5242709;28;20817;-79
2021/01/06 01:09:27;;;;;;;9.70;4.57;;;;;;;3.40;100.00;100669.94;5244383;28;20642;-79
2021/01/06 01:11:57;;;;;;;9.23;4.75;;;;;;;3.34;100.00;100675.97;5243452;28;20410;-79
2021/01/06 01:14:27;;;;;;;9.85;4.85;;;;;;;3.40;100.00;100667.34;5238846;28;20067;-79
2021/01/06 01:16:58;;;;;;;9.57;5.00;;;;;;;3.31;100.00;100669.97;5242416;28;20029;-79
2021/01/06 01:19:28;;;;;;;11.85;5.30;;;;;;;3.30;100.00;100668.25;5242324;28;20548;-79
2021/01/06 01:21:58;;;;;;;7.28;4.63;;;;;;;3.32;100.00;100662.22;5243287;28;20403;-79
2021/01/06 01:24:29;;;;;;;10.63;4.95;;;;;;;3.23;100.00;100659.66;5242640;28;20060;-79
2021/01/06 01:26:59;;;;;;;8.73;4.75;;;;;;;3.34;100.00;100664.81;5232527;28;20049;-79
2021/01/06 01:29:29;;;;;;;9.00;4.50;;;;;;;3.39;100.00;100657.88;5258023;28;20031;-79
2021/01/06 01:32:00;;;;;;;10.35;4.88;;;;;;;3.27;100.00;100663.09;5249529;28;20103;-79
2021/01/06 01:34:30;;;;;;;8.98;4.85;;;;;;;3.35;100.00;100651.03;5242394;28;20513;-78
2021/01/06 01:37:00;;;;;;;13.38;5.15;;;;;;;3.26;100.00;100654.53;5244669;28;20356;-79
2021/01/06 01:39:30;;;;;;;10.10;4.57;;;;;;;3.18;100.00;100648.50;5253617;28;20023;-79
2021/01/06 01:42:01;;;;;;;7.53;4.35;;;;;;;3.26;100.00;100643.31;5246338;28;20020;-79
2021/01/06 01:44:31;;;;;;;8.07;4.90;;;;;;;3.27;100.00;100633.00;5245862;28;20024;-79
2021/01/06 01:47:15;;;;;;;10.23;4.82;;;;;;;3.30;100.00;100634.69;5245781;28;20032;-79
2021/01/06 01:49:47;;;;;;;9.68;4.50;;;;;;;3.24;100.00;100637.31;5246776;28;20039;-79
2021/01/06 01:52:28;;;;;;;8.68;4.40;;;;;;;3.21;100.00;100634.75;5245447;28;20367;-79
2021/01/06 01:55:02;;;;;;;9.70;4.82;;;;;;;3.19;100.00;100629.56;5245564;28;20051;-79
2021/01/06 01:57:42;;;;;;;9.43;5.00;;;;;;;3.13;100.00;100631.31;5246569;28;20024;-79
2021/01/06 02:00:17;;;;;;;9.00;4.70;;;;;;;3.09;100.00;100624.47;5245655;28;20029;-79
2021/01/06 02:02:54;;;;;;;10.10;4.70;;;;;;;3.20;100.00;100630.44;5246479;28;20032;-79
2021/01/06 02:05:30;;;;;;;8.43;4.70;;;;;;;3.10;100.00;100629.63;5246598;28;20028;-79
2021/01/06 02:08:12;;;;;;;8.35;4.78;;;;;;;3.17;100.00;100625.31;5246526;28;20052;-79
2021/01/06 02:10:56;;;;;;;9.20;4.57;;;;;;;3.24;100.00;100626.97;5252781;28;20077;-79
2021/01/06 02:13:48;;;;;;;7.97;4.50;;;;;;;3.12;100.00;100621.88;5246177;28;20433;-79
2021/01/06 02:16:45;;;;;;;10.65;4.63;;;;;;;3.16;100.00;100623.59;5245655;28;20490;-79
2021/01/06 02:19:22;;;;;;;8.68;4.57;;;;;;;3.31;100.00;100623.47;5246962;28;20028;-79
2021/01/06 02:21:52;;;;;;;7.60;4.20;;;;;;;3.17;100.00;100620.13;5240673;28;20102;-79
2021/01/06 02:24:23;;;;;;;7.75;4.28;;;;;;;3.22;100.00;100626.13;5245542;28;20050;-79
2021/01/06 02:26:53;;;;;;;9.20;4.32;;;;;;;3.20;100.00;100620.13;5235337;28;20026;-79
2021/01/06 02:29:24;;;;;;;8.13;4.22;;;;;;;3.13;100.00;100623.59;5236572;28;20517;-78
2021/01/06 02:31:54;;;;;;;6.68;4.18;;;;;;;3.21;100.00;100622.69;5235455;28;20391;-79
2021/01/06 02:34:25;;;;;;;9.00;4.15;;;;;;;3.21;100.00;100629.56;5234450;28;20027;-79
2021/01/06 02:36:57;;;;;;;7.43;4.20;;;;;;;3.24;100.00;100622.69;5235476;28;20021;-79
2021/01/06 02:39:27;;;;;;;7.15;4.03;;;;;;;3.27;100.00;100622.66;5239707;28;20028;-79
2021/01/06 02:41:59;;;;;;;7.22;3.75;;;;;;;3.27;100.00;100624.38;5239589;28;20048;-79
2021/01/06 02:44:30;;;;;;;6.80;3.80;;;;;;;3.39;100.00;100637.22;5233828;28;20108;-79
2021/01/06 02:47:01;;;;;;;7.82;3.75;;;;;;;3.25;100.00;100619.22;5234500;28;20136;-79
2021/01/06 02:49:31;;;;;;;8.48;3.80;;;;;;;3.19;100.00;100615.81;5234042;28;20024;-79
2021/01/06 02:52:14;;;;;;;5.60;3.60;;;;;;;3.31;100.00;100613.16;5236365;28;20039;-79
2021/01/06 02:54:47;;;;;;;5.97;3.80;;;;;;;3.20;100.00;100613.22;5235305;28;20040;-79
2021/01/06 02:57:18;;;;;;;7.28;3.60;;;;;;;3.36;100.00;100611.41;5235153;28;20020;-78
2021/01/06 02:59:49;;;;;;;6.53;3.58;;;;;;;3.30;100.00;100603.69;5236885;28;20033;-79
2021/01/06 03:02:22;;;;;;;4.57;3.25;;;;;;;3.26;100.00;100600.28;5237001;28;20475;-79
2021/01/06 03:04:58;;;;;;;4.63;3.13;;;;;;;3.17;100.00;100604.66;5234164;28;20078;-79
2021/01/06 03:07:31;;;;;;;4.55;2.88;;;;;;;3.22;100.00;100602.88;5233578;28;20028;-79
2021/01/06 03:10:03;;;;;;;6.65;3.42;;;;;;;3.20;100.00;100602.06;5240928;28;20020;-79
2021/01/06 03:12:34;;;;;;;6.10;3.40;;;;;;;3.19;100.00;100601.19;5235647;28;20483;-79
2021/01/06 03:15:05;;;;;;;6.68;3.08;;;;;;;3.20;100.00;100596.88;5234319;28;20032;-79
2021/01/06 03:17:36;;;;;;;4.57;3.00;;;;;;;3.07;100.00;100592.66;5234642;28;20024;-79
2021/01/06 03:20:11;;;;;;;7.93;3.13;;;;;;;2.98;100.00;100592.69;5234571;28;20032;-79
2021/01/06 03:22:44;;;;;;;5.60;3.00;;;;;;;3.19;100.00;100584.84;5235704;28;20025;-79
2021/01/06 03:25:16;;;;;;;5.45;2.88;;;;;;;3.08;100.00;100596.94;5233934;28;20017;-79
2021/01/06 03:27:51;;;;;;;7.18;3.08;;;;;;;3.03;100.00;100593.53;5235220;28;20108;-79
2021/01/06 03:30:26;;;;;;;7.05;3.08;;;;;;;2.95;100.00;100584.97;5233625;28;20024;-79
2021/01/06 03:33:22;;;;;;;4.03;2.63;;;;;;;2.95;100.00;100582.38;5234428;28;20044;-79
2021/01/06 03:36:06;;;;;;;5.97;3.30;;;;;;;2.97;100.00;100585.81;5235457;28;20637;-78
2021/01/06 03:38:58;;;;;;;7.15;3.45;;;;;;;2.99;100.00;100584.09;5234818;28;20020;-79
2021/01/06 03:41:30;;;;;;;5.10;3.55;;;;;;;3.02;100.00;100586.66;5237074;28;20016;-79
2021/01/06 03:44:06;;;;;;;7.43;4.00;;;;;;;2.97;100.00;100580.63;5236214;28;20107;-79
2021/01/06 03:47:05;;;;;;;5.65;3.78;;;;;;;3.00;100.00;100578.06;5233315;28;20024;-79
2021/01/06 03:49:59;;;;;;;7.72;3.67;;;;;;;3.06;100.00;100570.28;5234711;28;20028;-79
2021/01/06 03:52:58;;;;;;;5.90;3.72;;;;;;;3.01;100.00;100574.63;5237566;28;20037;-79
2021/01/06 03:55:41;;;;;;;5.78;4.10;;;;;;;3.06;100.00;100576.28;5236674;28;20479;-79
2021/01/06 03:58:41;;;;;;;8.63;4.78;;;;;;;3.09;100.00;100575.41;5234389;28;20037;-79
2021/01/06 04:01:41;;;;;;;7.32;4.53;;;;;;;3.07;100.00;100572.88;5235338;28;20020;-79
2021/01/06 04:04:28;;;;;;;7.88;4.82;;;;;;;3.11;100.00;100559.06;5244158;28;20040;-79
2021/01/06 04:07:00;;;;;;;10.10;4.85;;;;;;;3.13;100.00;100566.78;5244869;28;20024;-79
2021/01/06 04:09:30;;;;;;;8.95;4.85;;;;;;;3.06;100.00;100559.97;5250325;28;20035;-79
2021/01/06 04:12:05;;;;;;;8.50;5.20;;;;;;;3.10;100.00;100566.81;5242580;28;20024;-79
2021/01/06 04:14:36;;;;;;;;;;;;;;;3.16;100.00;100572.81;5244246;28;20689;-79
2021/01/06 04:17:26;;;;;;;8.63;5.28;;;;;;;3.04;100.00;100572.03;5244384;28;19947;-79
2021/01/06 04:20:08;;;;;;;9.85;5.38;;;;;;;3.02;100.00;100566.00;5244269;28;20024;-79
2021/01/06 04:22:51;;;;;;;8.95;5.20;;;;;;;3.04;100.00;100556.53;5244469;28;20033;-79
2021/01/06 04:25:37;;;;;;;10.15;5.85;;;;;;;3.04;100.00;100559.13;5243198;28;20525;-79
2021/01/06 04:28:23;;;;;;;12.35;6.00;;;;;;;3.10;100.00;100553.91;5241649;28;20396;-79
2021/01/06 04:31:00;;;;;;;8.85;5.55;;;;;;;3.09;100.00;100552.19;5243477;28;20033;-79
2021/01/06 04:33:42;;;;;;;8.13;5.25;;;;;;;3.09;100.00;100550.47;5243522;28;20047;-79
2021/01/06 04:36:17;;;;;;;9.52;5.47;;;;;;;3.14;100.00;100545.25;5244955;28;20103;-79
2021/01/06 04:38:50;;;;;;;10.10;6.00;;;;;;;3.11;100.00;100553.03;5244920;28;20024;-79
2021/01/06 04:41:34;;;;;;;8.23;5.70;;;;;;;3.12;100.00;100544.41;5251057;28;20569;-79
2021/01/06 04:44:31;;;;;;;10.95;6.57;;;;;;;3.19;100.00;100541.78;5244353;28;20025;-79
2021/01/06 04:47:11;;;;;;;11.05;5.90;;;;;;;3.15;100.00;100544.41;5244947;28;20058;-79
2021/01/06 04:50:00;;;;;;;11.02;6.10;;;;;;;3.11;100.00;100545.28;5245366;28;20028;-79
2021/01/06 04:52:48;;;;;;;10.70;5.82;;;;;;;3.05;100.00;100542.75;5243500;28;20031;-80
2021/01/06 04:55:37;;;;;;;10.90;5.75;;;;;;;3.16;100.00;100540.97;5243276;28;20024;-79
2021/01/06 04:58:38;;;;;;;10.90;5.95;;;;;;;3.11;100.00;100541.00;5239931;28;20017;-80
2021/01/06 05:01:15;;;;;;;10.23;5.80;;;;;;;3.23;100.00;100540.06;5241944;28;20221;-80
2021/01/06 05:04:22;;;;;;;10.88;5.95;;;;;;;3.20;100.00;100532.34;5244161;28;20028;-80
2021/01/06 05:07:02;;;;;;;11.20;6.18;;;;;;;3.21;100.00;100527.16;5244493;28;20024;-79
2021/01/06 05:09:40;;;;;;;11.13;6.00;;;;;;;3.08;100.00;100533.28;5251220;28;20111;-79
2021/01/06 05:12:19;;;;;;;9.40;5.85;;;;;;;3.07;100.00;100533.28;5236300;28;20088;-79
2021/01/06 05:15:15;;;;;;;10.65;5.60;;;;;;;3.06;100.00;100534.97;5242881;28;20024;-79
2021/01/06 05:17:45;;;;;;;12.87;4.97;;;;;;;3.04;100.00;100526.41;5246756;28;20048;-79
2021/01/06 05:20:15;;;;;;;13.48;6.22;;;;;;;3.06;100.00;100523.81;5244206;28;20063;-79
2021/01/06 05:22:46;;;;;;;10.32;5.80;;;;;;;3.06;100.00;100521.25;5244710;28;20020;-79
2021/01/06 05:25:16;;;;;;;9.45;5.68;;;;;;;3.06;100.00;100523.81;5242483;28;20033;-79
2021/01/06 05:27:48;;;;;;;8.93;5.57;;;;;;;3.02;100.00;100525.56;5244863;28;20076;-79
2021/01/06 05:30:28;;;;;;;11.10;5.75;;;;;;;2.98;100.00;100515.25;5244280;28;20028;-79
2021/01/06 05:33:05;;;;;;;9.27;5.72;;;;;;;2.99;100.00;100514.41;5244783;28;20390;-80
2021/01/06 05:35:40;;;;;;;10.75;5.60;;;;;;;2.96;100.00;100517.00;5244954;28;20020;-79
2021/01/06 05:38:10;;;;;;;9.98;5.35;;;;;;;2.94;100.00;100518.72;5238618;28;20141;-79
2021/01/06 05:40:43;;;;;;;8.32;5.32;;;;;;;2.95;100.00;100515.28;5252610;28;20111;-80
2021/01/06 05:43:16;;;;;;;9.88;5.45;;;;;;;2.95;100.00;100515.28;5245917;28;20116;-80
2021/01/06 05:45:56;;;;;;;8.98;5.55;;;;;;;2.90;100.00;100511.88;5246412;28;20093;-79
2021/01/06 05:48:29;;;;;;;9.57;5.35;;;;;;;2.96;100.00;100510.13;5245225;28;20108;-79
2021/01/06 05:51:17;;;;;;;8.65;5.18;;;;;;;2.95;100.00;100520.44;5244036;28;20054;-79
2021/01/06 05:54:13;;;;;;;9.55;5.72;;;;;;;2.87;100.00;100506.75;5246905;28;20035;-79
2021/01/06 05:56:57;;;;;;;8.95;5.72;;;;;;;3.00;100.00;100514.38;5245526;28;20025;-79
2021/01/06 05:59:39;;;;;;;8.82;5.82;;;;;;;2.98;100.00;100510.09;5245133;28;20515;-79
2021/01/06 06:02:19;;;;;;;11.60;5.88;;;;;;;2.86;100.00;100505.03;5239090;28;20031;-79
2021/01/06 06:05:15;;;;;;;10.68;6.10;;;;;;;2.92;100.00;100510.13;5241469;28;20040;-79
2021/01/06 06:08:08;;;;;;;12.65;7.18;;;;;;;2.91;100.00;100508.44;5235406;28;20119;-79
2021/01/06 06:10:47;;;;;;;11.38;6.47;;;;;;;3.04;100.00;100508.34;5249615;28;20032;-79
2021/01/06 06:13:36;;;;;;;11.68;5.88;;;;;;;2.98;100.00;100507.50;5238372;28;20031;-79
2021/01/06 06:16:18;;;;;;;9.15;6.00;;;;;;;2.95;100.00;100502.38;5245220;28;20032;-79
2021/01/06 06:19:28;;;;;;;9.75;5.82;;;;;;;2.81;100.00;100501.59;5244901;28;20029;-79
2021/01/06 06:22:10;;;;;;;9.90;5.68;;;;;;;2.82;100.00;100487.84;5224275;28;20127;-79
2021/01/06 06:24:49;;;;;;;12.13;6.18;;;;;;;2.81;100.00;100499.00;5250271;28;20043;-79
2021/01/06 06:27:33;;;;;;;11.15;6.00;;;;;;;2.83;100.00;100500.72;5251396;28;20032;-79
2021/01/06 06:30:09;;;;;;;8.77;5.57;;;;;;;2.76;100.00;100498.19;5252112;28;20483;-79
2021/01/06 06:32:43;;;;;;;10.82;5.45;;;;;;;2.72;100.00;100497.34;5249500;28;20773;-79
2021/01/06 06:35:35;;;;;;;12.05;5.97;;;;;;;2.74;100.00;100498.22;5249048;28;20028;-79
2021/01/06 06:38:08;;;;;;;11.38;6.03;;;;;;;2.75;100.00;100501.63;5252023;28;20105;-79
2021/01/06 06:40:52;;;;;;;10.43;6.20;;;;;;;2.74;100.00;100499.94;5254441;28;20028;-80
2021/01/06 06:43:43;;;;;;;14.13;6.22;;;;;;;2.80;100.00;100505.03;5251471;28;20028;-79
2021/01/06 06:46:38;;;;;;;9.40;5.65;;;;;;;2.71;100.00;100502.53;5249158;28;20017;-79
2021/01/06 06:49:11;;;;;;;9.18;5.57;;;;;;;2.78;100.00;100499.03;5249165;28;20032;-79
2021/01/06 06:52:05;;;;;;;11.10;6.05;;;;;;;2.79;100.00;100499.03;5250124;28;20088;-79
2021/01/06 06:55:09;;;;;;;9.00;5.43;;;;;;;2.72;100.00;100501.66;5249000;28;20078;-79
2021/01/06 06:58:04;;;;;;;11.75;5.38;;;;;;;2.62;100.00;100499.97;5246525;28;20024;-79
2021/01/06 07:00:36;;;;;;;9.02;5.72;;;;;;;2.67;100.00;100506.00;5251554;28;20564;-80
2021/01/06 07:03:08;;;;;;;9.63;5.75;;;;;;;2.70;100.00;100495.66;5250681;28;20044;-79
2021/01/06 07:05:50;;;;;;;10.48;6.30;;;;;;;2.67;100.00;100501.69;5251489;28;20035;-79
2021/01/06 07:08:31;;;;;;;9.40;5.18;;;;;;;2.63;100.00;100496.53;5249563;28;20031;-79
2021/01/06 07:11:03;;;;;;;8.80;5.35;;;;;;;2.68;100.00;100499.97;5255318;28;20029;-79
2021/01/06 07:13:34;;;;;;;9.65;5.75;;;;;;;2.62;100.00;100502.56;5249216;28;20055;-79
2021/01/06 07:16:13;;;;;;;9.57;5.32;;;;;;;2.55;100.00;100503.47;5250670;28;20283;-79
2021/01/06 07:18:51;;;;;;;9.13;5.50;;;;;;;2.59;100.00;100505.16;5244011;28;20032;-79
2021/01/06 07:21:30;;;;;;;9.02;5.15;;;;;;;2.51;100.00;100494.03;5242770;28;20039;-79
2021/01/06 07:24:03;;;;;;;9.00;5.32;;;;;;;2.54;100.00;100506.91;5243570;28;20042;-79
2021/01/06 07:26:58;;;;;;;9.35;5.10;;;;;;;2.61;100.00;100506.00;5239890;28;20036;-79
2021/01/06 07:29:33;;;;;;;11.80;6.05;;;;;;;2.56;100.00;100500.91;5246787;28;20020;-79
2021/01/06 07:32:10;;;;;;;9.93;5.72;;;;;;;2.67;100.00;100509.41;5249676;28;20021;-79
2021/01/06 07:34:45;;;;;;;8.18;5.35;;;;;;;2.62;100.00;100499.97;5249189;28;20036;-79
2021/01/06 07:37:21;;;;;;;9.88;5.40;;;;;;;2.64;100.00;100501.69;5247860;28;20042;-79
2021/01/06 07:40:03;;;;;;;12.05;6.18;;;;;;;2.61;100.00;100500.84;5256864;28;20024;-79
2021/01/06 07:42:38;;;;;;;9.65;5.88;;;;;;;2.54;100.00;100504.34;5250043;28;20035;-79
2021/01/06 07:45:20;;;;;;;9.60;5.40;;;;;;;2.55;100.00;100508.63;5249978;28;20023;-79
2021/01/06 07:47:59;;;;;;;11.40;5.72;;;;;;;2.54;100.00;100505.16;5249007;28;20115;-79
2021/01/06 07:50:31;;;;;;;11.07;6.30;;;;;;;2.55;100.00;100509.50;5249335;28;20027;-79
2021/01/06 07:53:09;;;;;;;10.07;6.50;;;;;;;2.73;100.00;100508.53;5249711;28;20028;-79
2021/01/06 07:55:51;;;;;;;13.73;5.82;;;;;;;2.73;100.00;100513.69;5249902;28;20028;-79
2021/01/06 07:58:33;;;;;;;10.23;6.03;;;;;;;2.78;100.00;100512.81;5249329;28;20050;-79
2021/01/06 08:01:13;;;;;;;8.70;5.93;;;;;;;2.77;100.00;100505.06;5246327;28;20024;-79
2021/01/06 08:03:57;;;;;;;12.82;6.55;;;;;;;2.63;100.00;100506.84;5248871;28;20090;-79
2021/01/06 08:06:40;;;;;;;9.60;6.32;;;;;;;2.67;100.00;100513.75;5248730;28;20567;-79
2021/01/06 08:09:24;;;;;;;13.27;6.97;;;;;;;2.60;100.00;100500.00;5252511;28;20027;-79
2021/01/06 08:11:56;;;;;;;10.65;6.43;;;;;;;2.64;100.00;100508.56;5249228;28;20032;-79
2021/01/06 08:14:31;;;;;;;11.40;6.97;;;;;;;2.71;100.00;100510.28;5249084;28;20036;-79
2021/01/06 08:17:11;;;;;;;13.50;7.25;;;;;;;2.72;100.00;100506.81;5248667;28;20078;-79
2021/01/06 08:20:02;;;;;;;13.23;8.18;;;;;;;2.57;100.00;100507.75;5246457;28;20063;-79
2021/01/06 08:22:56;;;;;;;12.05;7.60;;;;;;;2.64;100.00;100504.28;5242973;28;20042;-80
2021/01/06 08:25:31;;;;;;;9.20;6.05;;;;;;;2.52;100.00;100503.50;5240651;28;20017;-79
2021/01/06 08:28:18;;;;;;;10.90;7.00;;;;;;;2.53;100.00;100507.78;5246700;28;20086;-79
2021/01/06 08:30:49;;;;;;;13.00;6.88;;;;;;;2.51;100.00;100505.19;5242985;28;20131;-78
2021/01/06 08:33:20;;;;;;;12.63;6.90;;;;;;;2.45;100.00;100494.03;5242601;28;20108;-78
2021/01/06 08:35:50;;;;;;;10.35;6.80;;;;;;;2.53;100.00;100500.88;5244411;28;20024;-79
2021/01/06 08:38:28;;;;;;;11.25;7.45;;;;;;;2.63;100.00;100499.13;5244984;28;20036;-79
2021/01/06 08:41:20;;;;;;;11.82;7.00;;;;;;;2.51;100.00;100501.78;5251194;28;20056;-79
2021/01/06 08:43:51;;;;;;;11.30;7.25;;;;;;;2.49;100.00;100509.50;5244713;28;20620;-78
2021/01/06 08:46:27;;;;;;;9.15;6.00;;;;;;;2.46;100.00;100508.66;5243589;28;20032;-79
2021/01/06 08:49:24;;;;;;;11.60;6.35;;;;;;;2.48;100.00;100507.78;5231216;28;20029;-78
2021/01/06 08:52:11;;;;;;;10.75;5.97;;;;;;;2.51;100.00;100509.50;5244451;28;20044;-79
2021/01/06 08:54:43;;;;;;;9.57;6.40;;;;;;;2.47;100.00;100505.25;5241667;28;20103;-79
2021/01/06 08:57:24;;;;;;;10.65;6.80;;;;;;;2.61;100.00;100499.16;5237020;28;20017;-78
2021/01/06 08:59:55;;;;;;;8.77;6.65;;;;;;;2.72;100.00;100509.41;5244341;28;20032;-79
2021/01/06 09:02:44;;;;;;;9.27;6.25;;;;;;;2.63;100.00;100512.88;5245628;28;20021;-79
2021/01/06 09:05:51;;;;;;;11.38;6.70;;;;;;;2.67;100.00;100514.56;5244315;28;20025;-79
2021/01/06 09:08:36;;;;;;;9.75;6.30;;;;;;;2.59;100.00;100508.63;5245295;28;20054;-79
2021/01/06 09:11:13;;;;;;;15.02;6.25;;;;;;;2.54;100.00;100512.91;5252324;28;20020;-79
2021/01/06 09:13:51;;;;;;;11.02;6.00;;;;;;;2.70;100.00;100513.72;5247229;28;20038;-79
2021/01/06 09:16:21;;;;;;;8.93;5.72;;;;;;;2.63;100.00;100519.75;5244409;28;20546;-79
2021/01/06 09:19:10;;;;;;;9.20;6.07;;;;;;;2.61;100.00;100519.78;5245241;28;20033;-79
2021/01/06 09:21:41;;;;;;;8.10;5.40;;;;;;;2.56;100.00;100510.34;5244632;28;20268;-78
2021/01/06 09:24:17;;;;;;;8.60;5.38;;;;;;;2.63;100.00;100515.47;5245007;28;20032;-79
2021/01/06 09:26:54;;;;;;;9.15;5.72;;;;;;;2.66;100.00;100501.72;5244258;28;20028;-78
2021/01/06 09:29:28;;;;;;;9.27;5.95;;;;;;;2.76;100.00;100503.34;5243751;28;20067;-79
2021/01/06 09:32:01;;;;;;;9.75;6.15;;;;;;;2.65;100.00;100507.72;5243004;28;20024;-79
2021/01/06 09:34:37;;;;;;;9.68;5.78;;;;;;;2.77;100.00;100510.22;5243246;28;20109;-78
2021/01/06 09:37:20;;;;;;;11.23;6.38;;;;;;;2.84;100.00;100511.91;5243079;28;20502;-79
2021/01/06 09:39:54;;;;;;;9.27;5.50;;;;;;;2.77;100.00;100512.81;5250133;28;20032;-79
2021/01/06 09:42:25;;;;;;;8.55;5.50;;;;;;;2.76;100.00;100509.38;5243024;28;20166;-78
2021/01/06 09:44:57;;;;;;;8.90;5.70;;;;;;;2.84;100.00;100514.50;5244214;28;20613;-78
2021/01/06 09:47:39;;;;;;;11.73;5.35;;;;;;;2.80;100.00;100505.03;5244774;28;20036;-79
2021/01/06 09:50:18;;;;;;;8.32;5.18;;;;;;;2.80;100.00;100512.78;5245175;28;20395;-80
2021/01/06 09:52:51;;;;;;;9.88;6.18;;;;;;;2.85;100.00;100513.63;5246062;28;20111;-79
2021/01/06 09:55:24;;;;;;;13.13;6.85;;;;;;;2.76;100.00;100503.34;5246674;28;20101;-79
2021/01/06 09:58:05;;;;;;;10.02;6.90;;;;;;;2.80;100.00;100507.63;5248236;28;20675;-79
2021/01/06 10:00:35;;;;;;;11.43;6.80;;;;;;;2.89;100.00;100510.16;5250042;28;20040;-79
2021/01/06 10:03:06;;;;;;;9.85;6.15;;;;;;;2.79;100.00;100508.50;5250556;28;20027;-78
2021/01/06 10:05:42;;;;;;;19.35;11.25;;;;;;;2.79;100.00;100506.78;5249712;28;20031;-79
2021/01/06 10:08:24;;;;;;;23.02;13.50;;;;;;;2.68;100.00;100503.38;5248952;28;20442;-79
2021/01/06 10:11:02;;;;;;;11.75;6.78;;;;;;;2.65;100.00;100500.00;5254870;28;20107;-79
2021/01/06 10:13:52;;;;;;;20.35;11.38;;;;;;;2.75;100.00;100499.06;5249294;28;20475;-79
2021/01/06 10:16:33;;;;;;;11.50;7.50;;;;;;;2.76;100.00;100499.06;5247953;28;20064;-79
2021/01/06 10:19:45;;;;;;;15.13;9.20;;;;;;;2.78;100.00;100496.47;5249953;28;20034;-79
2021/01/06 10:22:37;;;;;;;21.30;12.57;;;;;;;2.63;100.00;100487.09;5250389;28;20020;-79
2021/01/06 10:25:26;;;;;;;13.00;8.07;;;;;;;2.69;100.00;100486.22;5249693;28;20025;-79
2021/01/06 10:28:26;;;;;;;19.40;10.60;;;;;;;2.84;100.00;100481.81;5249678;28;20031;-78
2021/01/06 10:31:08;;;;;;;16.00;9.45;;;;;;;2.78;100.00;100481.84;5249092;28;20021;-79
2021/01/06 10:34:11;;;;;;;9.68;5.63;;;;;;;2.79;100.00;100472.38;5248004;28;20024;-79
2021/01/06 10:36:57;;;;;;;14.25;8.43;;;;;;;3.01;100.00;100473.97;5213064;28;20098;-78
2021/01/06 10:39:50;;;;;;;17.80;10.23;;;;;;;2.96;100.00;100473.13;5251772;28;20460;-78
2021/01/06 10:42:21;;;;;;;54.70;26.58;;;;;;;2.99;100.00;100467.97;5246878;28;20032;-79
2021/01/06 10:45:09;;;;;;;16.50;8.97;;;;;;;2.87;100.00;100471.44;5246675;28;20540;-78
2021/01/06 10:47:50;;;;;;;8.38;5.03;;;;;;;2.91;100.00;100464.56;5246787;28;20289;-79
2021/01/06 10:50:24;;;;;;;7.25;4.72;;;;;;;2.92;100.00;100461.09;5246990;28;20024;-79
2021/01/06 10:53:06;;;;;;;9.63;5.55;;;;;;;2.97;100.00;100454.19;5246722;28;20024;-79
2021/01/06 10:55:42;;;;;;;12.13;6.65;;;;;;;3.07;100.00;100450.69;5246240;28;20062;-79
2021/01/06 10:58:41;;;;;;;7.97;5.45;;;;;;;2.98;100.00;100443.88;5246281;28;20013;-78
2021/01/06 11:01:46;;;;;;;6.97;4.50;;;;;;;3.06;100.00;100443.81;5241130;28;20090;-78
2021/01/06 11:05:10;;;;;;;13.30;7.47;;;;;;;3.01;100.00;100435.25;5245780;28;20024;-79
2021/01/06 11:08:14;;;;;;;8.35;5.40;;;;;;;3.08;100.00;100440.34;5201662;28;20029;-79
2021/01/06 11:11:09;;;;;;;9.02;6.07;;;;;;;3.10;100.00;100437.75;5250794;28;20020;-78
2021/01/06 11:14:11;;;;;;;9.63;6.38;;;;;;;3.13;100.00;100432.56;5244176;28;20024;-79
2021/01/06 11:16:57;;;;;;;8.32;4.95;;;;;;;2.90;100.00;100426.72;5245827;28;20552;-79
2021/01/06 11:19:45;;;;;;;9.50;6.35;;;;;;;3.04;100.00;100427.47;5244790;28;20043;-78
2021/01/06 11:22:43;;;;;;;7.28;5.32;;;;;;;2.91;100.00;100421.56;5244779;28;20048;-78
2021/01/06 11:25:35;;;;;;;8.90;6.03;;;;;;;2.89;100.00;100414.69;5244677;28;20579;-79
2021/01/06 11:28:05;;;;;;;6.63;4.65;;;;;;;2.91;100.00;100413.81;5245730;28;20085;-78
2021/01/06 11:30:40;;;;;;;6.10;4.63;;;;;;;2.92;100.00;100412.94;5245278;28;20028;-79
2021/01/06 11:33:13;;;;;;;7.50;4.72;;;;;;;3.01;100.00;100417.19;5244707;28;20035;-78
2021/01/06 11:35:58;;;;;;;7.72;5.00;;;;;;;2.97;100.00;100406.03;5245978;28;20025;-78
2021/01/06 11:38:37;;;;;;;8.83;4.67;;;;;;;2.97;100.00;100407.72;5243602;28;20532;-78
2021/01/06 11:41:09;;;;;;;8.38;5.32;;;;;;;3.04;100.00;100396.50;5251366;28;20266;-79
2021/01/06 11:43:46;;;;;;;7.40;4.97;;;;;;;2.95;100.00;100387.13;5244287;28;20029;-79
2021/01/06 11:46:37;;;;;;;6.45;4.07;;;;;;;2.92;100.00;100386.28;5245760;28;20028;-79
2021/01/06 11:49:10;;;;;;;8.60;4.90;;;;;;;2.89;100.00;100394.88;5244944;28;20035;-79
2021/01/06 11:52:21;;;;;;;6.40;3.95;;;;;;;2.92;100.00;100381.97;5244011;28;20025;-78
2021/01/06 11:55:19;;;;;;;13.70;7.90;;;;;;;2.81;100.00;100388.06;5244856;28;20036;-78
2021/01/06 11:57:57;;;;;;;11.43;6.82;;;;;;;2.82;100.00;100379.50;5244253;28;20063;-79
2021/01/06 12:00:42;;;;;;;5.95;3.83;;;;;;;2.74;100.00;100379.56;5244795;28;20028;-78
2021/01/06 12:03:12;;;;;;;6.85;4.60;;;;;;;2.89;100.00;100369.09;5222185;28;20171;-80
2021/01/06 12:06:07;;;;;;;8.70;4.73;;;;;;;2.94;100.00;100369.91;5223981;28;20104;-79
2021/01/06 12:08:40;;;;;;;6.70;4.70;;;;;;;2.95;100.00;100363.88;5223577;28;20291;-79
2021/01/06 12:11:35;;;;;;;7.60;5.03;;;;;;;2.92;100.00;100360.47;5250557;28;20596;-79
2021/01/06 12:14:31;;;;;;;5.97;4.10;;;;;;;2.85;100.00;100351.91;5244033;28;20475;-79
2021/01/06 12:17:16;;;;;;;10.35;5.30;;;;;;;2.94;100.00;100353.56;5243260;28;20275;-78
2021/01/06 12:19:56;;;;;;;9.13;5.30;;;;;;;2.87;100.00;100349.34;5244171;28;20029;-79